createdAt,value
2018-04-26T00:00:31.829Z,3.97
2018-04-26T00:03:00.942Z,3.00
2018-04-26T00:05:29.264Z,3.90
2018-04-26T00:07:57.581Z,3.10
2018-04-26T00:10:25.879Z,3.87
2018-04-26T00:12:54.933Z,3.13
2018-04-26T00:15:23.240Z,3.00
2018-04-26T00:17:51.557Z,3.30
2018-04-26T00:20:19.851Z,2.70
2018-04-26T00:22:48.159Z,3.03
2018-04-26T00:25:16.457Z,2.40
2018-04-26T00:27:44.761Z,2.70
2018-04-26T00:30:13.721Z,2.80
2018-04-26T00:32:42.029Z,2.00
2018-04-26T00:35:11.099Z,2.50
2018-04-26T00:37:39.572Z,2.50
2018-04-26T00:40:07.871Z,2.93
2018-04-26T00:42:36.203Z,3.13
2018-04-26T00:45:04.505Z,3.47
2018-04-26T00:47:32.805Z,4.13
2018-04-26T00:50:01.102Z,3.20
2018-04-26T00:52:29.429Z,3.50
2018-04-26T00:54:57.745Z,3.17
2018-04-26T00:57:26.056Z,2.17
2018-04-26T00:59:55.155Z,2.73
2018-04-26T01:02:24.247Z,2.30
2018-04-26T01:04:53.325Z,2.20
2018-04-26T01:07:21.637Z,2.07
2018-04-26T01:09:50.705Z,2.00
2018-04-26T01:12:19.025Z,1.80
2018-04-26T01:14:48.093Z,2.23
2018-04-26T01:17:16.395Z,1.53
2018-04-26T01:19:45.473Z,2.00
2018-04-26T01:22:13.762Z,2.13
2018-04-26T01:24:42.821Z,2.33
2018-04-26T01:27:11.118Z,1.77
2018-04-26T01:29:39.424Z,2.10
2018-04-26T01:32:07.717Z,3.10
2018-04-26T01:34:36.808Z,3.10
2018-04-26T01:37:23.650Z,2.40
2018-04-26T01:39:51.963Z,2.80
2018-04-26T01:42:20.261Z,3.40
2018-04-26T01:44:48.581Z,2.50
2018-04-26T01:47:16.879Z,2.50
2018-04-26T01:49:45.160Z,2.60
2018-04-26T01:52:13.449Z,3.63
2018-04-26T01:54:41.737Z,3.60
2018-04-26T01:57:10.034Z,3.23
2018-04-26T01:59:38.335Z,2.97
2018-04-26T02:02:07.399Z,3.17
2018-04-26T02:04:35.691Z,3.00
2018-04-26T02:07:03.986Z,3.13
2018-04-26T02:09:32.337Z,2.90
2018-04-26T02:12:00.631Z,2.40
2018-04-26T02:14:28.941Z,2.70
2018-04-26T02:16:58.008Z,3.20
2018-04-26T02:19:27.021Z,2.83
2018-04-26T02:21:56.089Z,2.70
2018-04-26T02:24:24.379Z,3.10
2018-04-26T02:26:53.355Z,3.00
2018-04-26T02:29:21.648Z,2.90
2018-04-26T02:31:49.941Z,3.00
2018-04-26T02:34:18.248Z,2.70
2018-04-26T02:36:47.310Z,3.00
2018-04-26T02:39:16.373Z,2.33
2018-04-26T02:41:44.689Z,2.53
2018-04-26T02:44:13.020Z,3.10
2018-04-26T02:46:41.376Z,3.20
2018-04-26T02:49:09.691Z,2.57
2018-04-26T02:51:37.984Z,2.40
2018-04-26T02:54:06.305Z,3.30
2018-04-26T02:56:34.593Z,2.30
2018-04-26T02:59:02.880Z,3.23
2018-04-26T03:01:31.203Z,3.10
2018-04-26T03:03:59.528Z,3.80
2018-04-26T03:06:27.835Z,3.47
2018-04-26T03:08:56.888Z,3.20
2018-04-26T03:11:25.189Z,3.30
2018-04-26T03:13:54.034Z,3.67
2018-04-26T03:16:22.337Z,2.60
2018-04-26T03:18:50.638Z,2.67
2018-04-26T03:21:18.942Z,2.87
2018-04-26T03:23:47.247Z,3.37
2018-04-26T03:26:15.529Z,2.53
2018-04-26T03:28:43.836Z,3.47
2018-04-26T03:31:12.288Z,2.87
2018-04-26T03:33:40.566Z,3.10
2018-04-26T03:36:09.641Z,3.07
2018-04-26T03:38:38.718Z,3.63
2018-04-26T03:41:07.018Z,3.93
2018-04-26T03:43:35.314Z,3.13
2018-04-26T03:46:04.408Z,2.90
2018-04-26T03:48:32.713Z,3.10
2018-04-26T03:51:01.019Z,3.40
2018-04-26T03:53:29.322Z,3.10
2018-04-26T03:55:57.619Z,3.33
2018-04-26T03:58:25.919Z,2.90
2018-04-26T04:01:12.959Z,2.53
2018-04-26T04:03:59.018Z,2.90
2018-04-26T04:06:28.073Z,3.40
2018-04-26T04:08:56.509Z,3.50
2018-04-26T04:11:25.569Z,2.80
2018-04-26T04:13:53.928Z,3.53
2018-04-26T04:16:22.227Z,3.50
2018-04-26T04:18:50.516Z,3.10
2018-04-26T04:21:18.812Z,2.80
2018-04-26T04:23:47.901Z,4.20
2018-04-26T04:26:16.180Z,3.97
2018-04-26T04:28:44.489Z,4.00
2018-04-26T04:31:12.790Z,3.10
2018-04-26T04:33:41.080Z,4.50
2018-04-26T04:36:09.374Z,3.93
2018-04-26T04:38:37.685Z,3.53
2018-04-26T04:41:05.995Z,3.80
2018-04-26T04:43:34.299Z,4.53
2018-04-26T04:46:02.596Z,3.90
2018-04-26T04:48:30.910Z,3.87
2018-04-26T04:50:59.216Z,4.47
2018-04-26T04:53:27.516Z,4.77
2018-04-26T04:55:55.825Z,4.37
2018-04-26T04:58:24.125Z,4.27
2018-04-26T05:00:52.425Z,4.37
2018-04-26T05:03:21.524Z,5.00
2018-04-26T05:05:50.600Z,4.40
2018-04-26T05:08:18.902Z,4.97
2018-04-26T05:10:47.982Z,4.70
2018-04-26T05:13:16.902Z,5.00
2018-04-26T05:15:45.963Z,4.80
2018-04-26T05:18:14.253Z,4.40
2018-04-26T05:20:42.551Z,4.07
2018-04-26T05:23:11.637Z,4.43
2018-04-26T05:25:40.005Z,4.60
2018-04-26T05:28:08.259Z,4.20
2018-04-26T05:30:36.576Z,5.17
2018-04-26T05:33:04.902Z,4.70
2018-04-26T05:35:33.184Z,3.83
2018-04-26T05:38:01.861Z,3.70
2018-04-26T05:40:30.375Z,4.23
2018-04-26T05:42:58.644Z,4.33
2018-04-26T05:45:26.934Z,3.60
2018-04-26T05:47:55.245Z,3.40
2018-04-26T05:50:23.558Z,5.00
2018-04-26T05:52:52.629Z,3.40
2018-04-26T05:55:20.995Z,3.83
2018-04-26T05:57:49.298Z,3.77
2018-04-26T06:00:17.593Z,3.50
2018-04-26T06:02:46.694Z,3.30
2018-04-26T06:05:15.771Z,4.23
2018-04-26T06:07:44.068Z,3.70
2018-04-26T06:10:13.133Z,3.53
2018-04-26T06:12:41.467Z,4.60
2018-04-26T06:15:09.769Z,4.10
2018-04-26T06:17:38.087Z,3.60
2018-04-26T06:20:07.197Z,3.20
2018-04-26T06:22:35.521Z,3.50
2018-04-26T06:25:03.876Z,3.93
2018-04-26T06:27:32.151Z,3.30
2018-04-26T06:30:01.308Z,3.30
2018-04-26T06:32:29.654Z,2.93
2018-04-26T06:34:57.948Z,3.67
2018-04-26T06:37:26.270Z,2.77
2018-04-26T06:39:54.615Z,4.00
2018-04-26T06:42:22.983Z,2.80
2018-04-26T06:44:51.240Z,3.03
2018-04-26T06:47:20.357Z,3.87
2018-04-26T06:49:50.667Z,3.40
2018-04-26T06:52:19.002Z,3.63
2018-04-26T06:54:47.328Z,3.90
2018-04-26T06:57:16.393Z,3.60
2018-04-26T06:59:44.739Z,3.30
2018-04-26T07:02:13.038Z,3.00
2018-04-26T07:04:41.341Z,3.83
2018-04-26T07:07:09.628Z,3.90
2018-04-26T07:09:37.998Z,2.90
2018-04-26T07:12:06.353Z,3.73
2018-04-26T07:14:34.945Z,3.30
2018-04-26T07:17:03.283Z,3.70
2018-04-26T07:19:32.358Z,3.13
2018-04-26T07:22:00.678Z,3.20
2018-04-26T07:24:29.009Z,3.80
2018-04-26T07:26:57.322Z,3.40
2018-04-26T07:29:26.558Z,3.60
2018-04-26T07:31:54.853Z,4.83
2018-04-26T07:34:23.169Z,3.70
2018-04-26T07:36:51.562Z,3.17
2018-04-26T07:39:20.673Z,3.90
2018-04-26T07:41:49.753Z,4.20
2018-04-26T07:44:18.046Z,3.90
2018-04-26T07:46:47.138Z,3.47
2018-04-26T07:49:15.462Z,4.67
2018-04-26T07:51:43.773Z,4.00
2018-04-26T07:54:12.138Z,4.00
2018-04-26T07:56:40.436Z,3.70
2018-04-26T07:59:08.752Z,3.90
2018-04-26T08:01:37.927Z,3.90
2018-04-26T08:04:06.160Z,4.07
2018-04-26T08:06:34.449Z,4.07
2018-04-26T08:09:02.769Z,4.83
2018-04-26T08:11:31.105Z,4.80
2018-04-26T08:13:59.421Z,4.07
2018-04-26T08:16:27.720Z,4.40
2018-04-26T08:18:56.022Z,3.23
2018-04-26T08:21:25.117Z,5.10
2018-04-26T08:23:54.194Z,4.37
2018-04-26T08:26:22.498Z,3.67
2018-04-26T08:28:51.568Z,4.07
2018-04-26T08:31:19.894Z,3.70
2018-04-26T08:33:48.224Z,3.70
2018-04-26T08:36:18.170Z,3.47
2018-04-26T08:38:47.244Z,3.97
2018-04-26T08:41:15.577Z,3.47
2018-04-26T08:43:43.899Z,3.40
2018-04-26T08:46:12.210Z,3.60
2018-04-26T08:48:41.283Z,3.20
2018-04-26T08:51:09.650Z,3.10
2018-04-26T08:53:37.940Z,3.60
2018-04-26T08:56:06.290Z,4.20
2018-04-26T08:58:34.577Z,3.00
2018-04-26T09:01:02.882Z,3.40
2018-04-26T09:03:31.207Z,4.30
2018-04-26T09:06:00.299Z,4.13
2018-04-26T09:08:29.379Z,3.70
2018-04-26T09:10:57.681Z,3.23
2018-04-26T09:13:26.758Z,3.17
2018-04-26T09:15:55.067Z,3.50
2018-04-26T09:18:24.478Z,3.50
2018-04-26T09:20:52.783Z,4.00
2018-04-26T09:23:21.097Z,3.53
2018-04-26T09:25:49.436Z,3.77
2018-04-26T09:28:17.751Z,2.80
2018-04-26T09:30:46.060Z,3.07
2018-04-26T09:33:15.127Z,3.47
2018-04-26T09:35:43.424Z,3.50
2018-04-26T09:38:11.746Z,4.00
2018-04-26T09:40:40.057Z,4.47
2018-04-26T09:43:08.374Z,3.10
2018-04-26T09:45:36.718Z,3.50
2018-04-26T09:48:05.027Z,3.43
2018-04-26T09:50:33.324Z,3.43
2018-04-26T09:53:01.720Z,3.00
2018-04-26T09:55:30.891Z,3.53
2018-04-26T09:57:59.178Z,3.27
2018-04-26T10:00:28.430Z,3.90
2018-04-26T10:02:57.669Z,3.07
2018-04-26T10:05:31.397Z,3.17
2018-04-26T10:07:59.714Z,2.43
2018-04-26T10:10:28.179Z,3.53
2018-04-26T10:12:57.283Z,3.40
2018-04-26T10:15:25.593Z,3.50
2018-04-26T10:17:53.896Z,3.00
2018-04-26T10:20:22.223Z,2.40
2018-04-26T10:22:51.311Z,3.27
2018-04-26T10:25:20.374Z,3.83
2018-04-26T10:27:48.692Z,3.17
2018-04-26T10:30:17.822Z,3.60
2018-04-26T10:32:46.134Z,3.63
2018-04-26T10:35:14.450Z,3.20
2018-04-26T10:37:43.526Z,3.83
2018-04-26T10:40:11.835Z,3.30
2018-04-26T10:42:40.898Z,3.23
2018-04-26T10:45:09.214Z,3.60
2018-04-26T10:47:38.301Z,3.50
2018-04-26T10:50:06.614Z,2.90
2018-04-26T10:52:34.909Z,2.80
2018-04-26T10:55:03.344Z,3.30
2018-04-26T10:57:32.634Z,3.20
2018-04-26T11:00:23.126Z,4.07
2018-04-26T11:02:51.741Z,3.43
2018-04-26T11:05:20.847Z,3.47
2018-04-26T11:07:49.186Z,3.37
2018-04-26T11:10:17.489Z,3.07
2018-04-26T11:12:46.569Z,3.80
2018-04-26T11:15:14.877Z,3.27
2018-04-26T11:17:43.952Z,3.50
2018-04-26T11:20:12.267Z,2.63
2018-04-26T11:22:40.582Z,4.20
2018-04-26T11:25:08.890Z,3.20
2018-04-26T11:27:37.209Z,3.43
2018-04-26T11:30:05.609Z,3.60
2018-04-26T11:32:33.933Z,3.77
2018-04-26T11:35:02.231Z,3.17
2018-04-26T11:37:30.557Z,3.60
2018-04-26T11:39:58.929Z,3.50
2018-04-26T11:42:27.242Z,3.77
2018-04-26T11:44:56.440Z,3.53
2018-04-26T11:47:24.712Z,4.30
2018-04-26T11:49:53.006Z,3.10
2018-04-26T11:52:21.339Z,3.90
2018-04-26T11:54:49.618Z,4.03
2018-04-26T11:57:18.693Z,3.80
2018-04-26T11:59:47.034Z,4.00
2018-04-26T12:02:15.437Z,4.10
2018-04-26T12:04:44.438Z,3.63
2018-04-26T12:07:12.866Z,3.90
2018-04-26T12:09:41.169Z,4.43
2018-04-26T12:12:09.470Z,4.30
2018-04-26T12:14:37.770Z,4.30
2018-04-26T12:17:06.074Z,4.30
2018-04-26T12:19:35.138Z,3.50
2018-04-26T12:22:03.455Z,4.13
2018-04-26T12:24:32.525Z,3.80
2018-04-26T12:27:04.178Z,4.20
2018-04-26T12:29:32.963Z,4.20
2018-04-26T12:32:01.260Z,3.60
2018-04-26T12:34:29.615Z,4.10
2018-04-26T12:36:58.052Z,4.37
2018-04-26T12:39:27.156Z,3.90
2018-04-26T12:41:56.247Z,4.30
2018-04-26T12:44:27.737Z,4.10
2018-04-26T12:46:57.594Z,4.07
2018-04-26T12:49:25.891Z,3.50
2018-04-26T12:51:54.254Z,3.83
2018-04-26T12:54:32.287Z,3.87
2018-04-26T12:57:00.686Z,4.07
2018-04-26T12:59:31.200Z,4.43
2018-04-26T13:02:00.357Z,4.30
2018-04-26T13:04:29.402Z,4.20
2018-04-26T13:06:57.856Z,4.60
2018-04-26T13:09:26.161Z,4.20
2018-04-26T13:11:55.262Z,4.80
2018-04-26T13:14:24.321Z,4.20
2018-04-26T13:16:53.304Z,4.40
2018-04-26T13:19:21.621Z,4.70
2018-04-26T13:21:49.927Z,4.40
2018-04-26T13:24:18.239Z,5.50
2018-04-26T13:26:46.554Z,4.60
2018-04-26T13:29:14.888Z,3.97
2018-04-26T13:31:43.670Z,5.13
2018-04-26T13:34:15.471Z,3.90
2018-04-26T13:36:43.838Z,4.20
2018-04-26T13:39:12.161Z,5.00
2018-04-26T13:41:40.511Z,4.90
2018-04-26T13:44:13.364Z,4.50
2018-04-26T13:46:41.726Z,4.07
2018-04-26T13:49:10.978Z,4.00
2018-04-26T13:51:39.282Z,4.00
2018-04-26T13:54:07.580Z,5.03
2018-04-26T13:56:36.645Z,3.93
2018-04-26T13:59:05.719Z,4.17
2018-04-26T14:01:34.114Z,4.30
2018-04-26T14:04:02.829Z,4.20
2018-04-26T14:06:31.154Z,4.40
2018-04-26T14:08:59.481Z,4.70
2018-04-26T14:11:27.787Z,3.40
2018-04-26T14:13:56.136Z,3.70
2018-04-26T14:16:24.536Z,3.77
2018-04-26T14:18:52.872Z,5.50
2018-04-26T14:21:21.179Z,4.30
2018-04-26T14:23:49.492Z,4.90
2018-04-26T14:26:17.803Z,5.37
2018-04-26T14:28:46.119Z,4.90
2018-04-26T14:31:14.426Z,5.40
2018-04-26T14:33:42.733Z,4.70
2018-04-26T14:36:11.802Z,4.87
2018-04-26T14:38:40.112Z,4.07
2018-04-26T14:41:09.201Z,4.20
2018-04-26T14:43:38.265Z,4.33
2018-04-26T14:46:06.573Z,4.60
2018-04-26T14:48:39.744Z,5.20
2018-04-26T14:51:08.654Z,4.83
2018-04-26T14:53:37.027Z,4.67
2018-04-26T14:56:05.335Z,5.30
2018-04-26T14:58:34.469Z,5.53
2018-04-26T15:01:02.785Z,5.50
2018-04-26T15:03:31.101Z,6.20
2018-04-26T15:06:00.177Z,5.03
2018-04-26T15:08:28.492Z,5.10
2018-04-26T15:10:56.790Z,4.70
2018-04-26T15:13:25.291Z,5.03
2018-04-26T15:15:53.591Z,4.80
2018-04-26T15:18:21.885Z,5.27
2018-04-26T15:20:50.193Z,5.10
2018-04-26T15:23:19.265Z,5.67
2018-04-26T15:25:47.656Z,5.60
2018-04-26T15:28:16.842Z,5.03
2018-04-26T15:30:45.140Z,4.53
2018-04-26T15:33:13.453Z,4.90
2018-04-26T15:35:41.815Z,4.90
2018-04-26T15:38:10.925Z,5.23
2018-04-26T15:40:39.235Z,5.77
2018-04-26T15:43:07.551Z,5.03
2018-04-26T15:45:36.436Z,4.40
2018-04-26T15:48:05.810Z,4.03
2018-04-26T16:04:24.016Z,5.07
2018-04-26T16:07:10.077Z,5.20
2018-04-26T16:10:00.124Z,4.60
2018-04-26T16:13:02.682Z,3.63
2018-04-26T16:15:54.431Z,4.70
2018-04-26T16:18:44.198Z,4.27
2018-04-26T16:21:34.724Z,4.07
2018-04-26T16:24:26.397Z,3.93
2018-04-26T16:27:18.128Z,4.43
2018-04-26T16:30:09.653Z,3.90
2018-04-26T16:33:01.339Z,4.20
2018-04-26T16:35:47.495Z,4.53
2018-04-26T16:38:34.266Z,4.90
2018-04-26T16:41:02.585Z,4.63
2018-04-26T16:43:30.915Z,4.33
2018-04-26T16:45:59.205Z,4.70
2018-04-26T16:48:27.517Z,4.63
2018-04-26T16:50:56.283Z,4.90
2018-04-26T16:53:24.611Z,5.13
2018-04-26T16:55:53.685Z,5.00
2018-04-26T16:58:21.993Z,5.40
2018-04-26T17:00:51.071Z,4.10
2018-04-26T17:03:19.369Z,4.20
2018-04-26T17:05:48.463Z,4.70
2018-04-26T17:08:17.532Z,3.87
2018-04-26T17:10:45.842Z,4.60
2018-04-26T17:13:14.976Z,4.03
2018-04-26T17:15:43.293Z,4.23
2018-04-26T17:18:11.577Z,4.60
2018-04-26T17:20:39.929Z,4.20
2018-04-26T17:23:08.239Z,4.97
2018-04-26T17:25:37.301Z,4.57
2018-04-26T17:28:05.678Z,4.33
2018-04-26T17:30:35.994Z,4.27
2018-04-26T17:33:04.284Z,4.10
2018-04-26T17:35:32.593Z,3.60
2018-04-26T17:38:00.910Z,3.53
2018-04-26T17:40:29.218Z,3.83
2018-04-26T17:42:57.520Z,3.23
2018-04-26T17:45:25.905Z,3.43
2018-04-26T17:47:54.211Z,3.97
2018-04-26T17:50:22.513Z,3.60
2018-04-26T17:52:50.921Z,3.67
2018-04-26T17:55:19.162Z,4.07
2018-04-26T17:57:47.469Z,2.57
2018-04-26T18:00:16.557Z,3.03
2018-04-26T18:02:44.877Z,3.80
2018-04-26T18:05:13.195Z,4.23
2018-04-26T18:07:41.521Z,3.50
2018-04-26T18:10:09.818Z,2.80
2018-04-26T18:12:40.011Z,2.90
2018-04-26T18:15:09.079Z,3.47
2018-04-26T18:17:37.383Z,3.57
2018-04-26T18:20:08.575Z,3.40
2018-04-26T18:22:34.024Z,3.90
2018-04-26T18:25:02.337Z,4.50
2018-04-26T18:27:31.425Z,3.67
2018-04-26T18:29:59.716Z,3.10
2018-04-26T18:32:30.655Z,3.70
2018-04-26T18:34:59.878Z,3.50
2018-04-26T18:37:28.240Z,3.90
2018-04-26T18:39:57.313Z,4.37
2018-04-26T18:42:25.620Z,4.00
2018-04-26T18:44:54.752Z,3.70
2018-04-26T18:47:23.049Z,4.27
2018-04-26T18:49:58.197Z,4.20
2018-04-26T18:52:53.324Z,4.53
2018-04-26T18:55:29.973Z,5.30
2018-04-26T18:58:00.490Z,4.77
2018-04-26T19:00:28.953Z,4.20
2018-04-26T19:02:57.314Z,4.27
2018-04-26T19:05:25.597Z,3.90
2018-04-26T19:07:53.899Z,4.77
2018-04-26T19:10:22.218Z,3.70
2018-04-26T19:12:50.548Z,3.67
2018-04-26T19:15:18.876Z,5.47
2018-04-26T19:17:48.016Z,3.47
2018-04-26T19:20:16.325Z,3.30
2018-04-26T19:22:44.643Z,4.37
2018-04-26T19:25:12.979Z,4.83
2018-04-26T19:27:41.486Z,3.80
2018-04-26T19:30:09.826Z,5.00
2018-04-26T19:32:38.238Z,5.10
2018-04-26T19:35:06.554Z,4.50
2018-04-26T19:37:36.365Z,5.93
2018-04-26T19:40:04.677Z,4.00
2018-04-26T19:42:33.743Z,4.70
2018-04-26T19:45:02.142Z,4.73
2018-04-26T19:47:30.464Z,4.53
2018-04-26T19:49:58.820Z,3.93
2018-04-26T19:52:27.898Z,4.07
2018-04-26T19:54:56.298Z,4.40
2018-04-26T19:57:25.402Z,4.40
2018-04-26T19:59:54.462Z,3.80
2018-04-26T20:02:22.787Z,4.33
2018-04-26T20:04:51.860Z,3.37
2018-04-26T20:07:21.683Z,4.57
2018-04-26T20:09:50.865Z,5.00
2018-04-26T20:12:20.038Z,4.23
2018-04-26T20:14:48.741Z,3.43
2018-04-26T20:17:17.155Z,3.87
2018-04-26T20:19:46.305Z,4.23
2018-04-26T20:22:14.643Z,4.30
2018-04-26T20:24:43.826Z,4.70
2018-04-26T20:27:12.950Z,3.90
2018-04-26T20:29:42.028Z,4.10
2018-04-26T20:32:11.839Z,5.10
2018-04-26T20:34:40.150Z,4.17
2018-04-26T20:37:09.229Z,5.03
2018-04-26T20:39:37.529Z,4.30
2018-04-26T20:42:06.643Z,3.80
2018-04-26T20:44:48.565Z,3.80
2018-04-26T20:47:16.861Z,3.87
2018-04-26T20:49:45.185Z,4.50
2018-04-26T20:52:14.255Z,4.00
2018-04-26T20:54:42.558Z,4.83
2018-04-26T20:57:11.707Z,4.37
2018-04-26T20:59:45.048Z,4.10
2018-04-26T21:02:17.801Z,3.63
2018-04-26T21:04:46.980Z,5.80
2018-04-26T21:07:15.676Z,4.30
2018-04-26T21:09:44.572Z,4.30
2018-04-26T21:12:13.446Z,4.43
2018-04-26T21:14:43.612Z,4.67
2018-04-26T21:17:12.751Z,4.40
2018-04-26T21:19:41.103Z,4.13
2018-04-26T21:22:10.206Z,4.17
2018-04-26T21:24:38.556Z,5.80
2018-04-26T21:27:06.895Z,4.80
2018-04-26T21:29:35.237Z,4.17
2018-04-26T21:32:03.590Z,5.63
2018-04-26T21:34:31.975Z,5.10
2018-04-26T21:37:00.323Z,5.43
2018-04-26T21:39:28.648Z,4.03
2018-04-26T21:41:57.109Z,5.30
2018-04-26T21:44:25.460Z,5.00
2018-04-26T21:46:54.574Z,4.80
2018-04-26T21:49:22.258Z,4.93
2018-04-26T21:51:56.391Z,6.40
2018-04-26T21:54:30.912Z,6.30
2018-04-26T21:57:04.847Z,5.27
2018-04-26T21:59:38.861Z,5.50
2018-04-26T22:02:12.750Z,5.23
2018-04-26T22:04:43.409Z,5.57
2018-04-26T22:07:11.743Z,6.60
2018-04-26T22:09:40.125Z,6.40
2018-04-26T22:12:08.475Z,5.90
2018-04-26T22:14:37.578Z,5.90
2018-04-26T22:17:05.917Z,6.87
2018-04-26T22:19:34.261Z,5.77
2018-04-26T22:22:02.600Z,6.40
2018-04-26T22:24:30.933Z,7.00
2018-04-26T22:26:59.312Z,6.47
2018-04-26T22:29:27.716Z,7.40
2018-04-26T22:31:56.061Z,8.30
2018-04-26T22:34:24.427Z,7.77
2018-04-26T22:36:53.594Z,7.50
2018-04-26T22:39:21.936Z,6.73
2018-04-26T22:41:50.360Z,6.90
2018-04-26T22:44:19.465Z,7.00
2018-04-26T22:46:47.832Z,7.83
2018-04-26T22:49:16.166Z,8.10
2018-04-26T22:51:44.541Z,5.83
2018-04-26T22:54:13.876Z,6.43
2018-04-26T22:56:42.237Z,8.50
2018-04-26T22:59:10.577Z,5.93
2018-04-26T23:01:47.926Z,6.73
2018-04-26T23:04:16.405Z,6.80
2018-04-26T23:06:44.745Z,8.10
2018-04-26T23:09:13.093Z,6.70
2018-04-26T23:11:41.475Z,6.30
2018-04-26T23:14:09.915Z,6.57
2018-04-26T23:16:38.277Z,6.50
2018-04-26T23:19:07.409Z,5.37
2018-04-26T23:21:35.735Z,5.00
2018-04-26T23:24:04.089Z,6.67
2018-04-26T23:26:32.434Z,5.57
2018-04-26T23:29:01.529Z,5.37
2018-04-26T23:31:30.619Z,5.90
2018-04-26T23:33:59.722Z,5.00
2018-04-26T23:36:28.827Z,5.37
2018-04-26T23:38:58.090Z,5.33
2018-04-26T23:41:26.446Z,5.03
2018-04-26T23:43:54.793Z,5.67
2018-04-26T23:46:23.904Z,4.80
2018-04-26T23:48:52.308Z,5.50
2018-04-26T23:51:20.637Z,6.13
2018-04-26T23:53:49.746Z,5.10
2018-04-26T23:56:18.867Z,5.03
2018-04-26T23:58:48.159Z,5.17
